sensor_id;sensor_type;location;lat;lon;timestamp;P1;durP1;ratioP1;P2;durP2;ratioP2
28625;SDS011;18905;42.668;23.364;2022-09-13T00:02:17;8.68;;;4.50;;
28625;SDS011;18905;42.668;23.364;2022-09-13T00:04:42;8.15;;;4.32;;
28625;SDS011;18905;42.668;23.364;2022-09-13T00:07:08;10.52;;;4.97;;
28625;SDS011;18905;42.668;23.364;2022-09-13T00:09:34;6.40;;;4.65;;
28625;SDS011;18905;42.668;23.364;2022-09-13T00:12:01;5.38;;;4.13;;
28625;SDS011;18905;42.668;23.364;2022-09-13T00:14:27;5.88;;;4.15;;
28625;SDS011;18905;42.668;23.364;2022-09-13T00:16:53;7.30;;;4.65;;
28625;SDS011;18905;42.668;23.364;2022-09-13T00:30:32;7.28;;;5.10;;
28625;SDS011;18905;42.668;23.364;2022-09-13T00:33:04;11.35;;;4.70;;
28625;SDS011;18905;42.668;23.364;2022-09-13T00:35:34;10.20;;;5.25;;
28625;SDS011;18905;42.668;23.364;2022-09-13T00:38:01;11.30;;;4.90;;
28625;SDS011;18905;42.668;23.364;2022-09-13T00:40:35;5.10;;;4.28;;
28625;SDS011;18905;42.668;23.364;2022-09-13T00:43:17;7.88;;;5.07;;
28625;SDS011;18905;42.668;23.364;2022-09-13T00:45:45;8.25;;;4.88;;
28625;SDS011;18905;42.668;23.364;2022-09-13T00:48:16;7.53;;;5.07;;
28625;SDS011;18905;42.668;23.364;2022-09-13T00:50:50;11.90;;;5.30;;
28625;SDS011;18905;42.668;23.364;2022-09-13T00:53:30;7.45;;;5.38;;
28625;SDS011;18905;42.668;23.364;2022-09-13T00:59:01;7.63;;;5.03;;
28625;SDS011;18905;42.668;23.364;2022-09-13T01:01:36;6.25;;;4.60;;
28625;SDS011;18905;42.668;23.364;2022-09-13T01:04:11;7.28;;;4.57;;
28625;SDS011;18905;42.668;23.364;2022-09-13T01:06:36;5.85;;;4.18;;
28625;SDS011;18905;42.668;23.364;2022-09-13T01:09:07;7.70;;;4.82;;
28625;SDS011;18905;42.668;23.364;2022-09-13T01:16:52;6.60;;;4.65;;
28625;SDS011;18905;42.668;23.364;2022-09-13T03:58:19;7.22;;;4.82;;
28625;SDS011;18905;42.668;23.364;2022-09-13T04:00:46;6.60;;;5.03;;
28625;SDS011;18905;42.668;23.364;2022-09-13T04:03:12;5.95;;;4.25;;
28625;SDS011;18905;42.668;23.364;2022-09-13T04:05:40;6.43;;;3.65;;
28625;SDS011;18905;42.668;23.364;2022-09-13T04:08:05;6.30;;;3.95;;
28625;SDS011;18905;42.668;23.364;2022-09-13T04:10:33;6.43;;;4.15;;
28625;SDS011;18905;42.668;23.364;2022-09-13T04:13:00;12.43;;;3.88;;
28625;SDS011;18905;42.668;23.364;2022-09-13T04:15:26;9.23;;;4.28;;
28625;SDS011;18905;42.668;23.364;2022-09-13T04:17:53;6.32;;;3.83;;
28625;SDS011;18905;42.668;23.364;2022-09-13T04:20:19;7.30;;;4.68;;
28625;SDS011;18905;42.668;23.364;2022-09-13T04:22:54;8.02;;;3.72;;
28625;SDS011;18905;42.668;23.364;2022-09-13T04:25:21;7.32;;;4.65;;
28625;SDS011;18905;42.668;23.364;2022-09-13T04:27:54;9.73;;;5.18;;
28625;SDS011;18905;42.668;23.364;2022-09-13T04:30:20;7.65;;;4.60;;
28625;SDS011;18905;42.668;23.364;2022-09-13T04:32:46;8.52;;;4.55;;
28625;SDS011;18905;42.668;23.364;2022-09-13T04:35:11;7.05;;;3.95;;
28625;SDS011;18905;42.668;23.364;2022-09-13T04:37:37;12.27;;;4.10;;
28625;SDS011;18905;42.668;23.364;2022-09-13T04:40:03;8.23;;;4.10;;
28625;SDS011;18905;42.668;23.364;2022-09-13T04:42:30;6.75;;;3.67;;
28625;SDS011;18905;42.668;23.364;2022-09-13T04:44:56;5.90;;;4.00;;
28625;SDS011;18905;42.668;23.364;2022-09-13T04:47:21;7.18;;;4.20;;
28625;SDS011;18905;42.668;23.364;2022-09-13T04:49:47;7.93;;;4.13;;
28625;SDS011;18905;42.668;23.364;2022-09-13T04:52:12;8.65;;;4.05;;
28625;SDS011;18905;42.668;23.364;2022-09-13T04:54:39;7.47;;;4.15;;
28625;SDS011;18905;42.668;23.364;2022-09-13T04:57:04;8.43;;;3.80;;
28625;SDS011;18905;42.668;23.364;2022-09-13T04:59:30;5.28;;;3.53;;
28625;SDS011;18905;42.668;23.364;2022-09-13T05:01:56;8.27;;;3.25;;
28625;SDS011;18905;42.668;23.364;2022-09-13T05:04:22;5.50;;;3.55;;
28625;SDS011;18905;42.668;23.364;2022-09-13T05:06:49;8.48;;;4.18;;
28625;SDS011;18905;42.668;23.364;2022-09-13T05:09:15;5.82;;;3.90;;
28625;SDS011;18905;42.668;23.364;2022-09-13T05:11:41;5.68;;;3.70;;
28625;SDS011;18905;42.668;23.364;2022-09-13T05:14:08;7.25;;;3.92;;
28625;SDS011;18905;42.668;23.364;2022-09-13T05:16:35;12.80;;;4.22;;
28625;SDS011;18905;42.668;23.364;2022-09-13T05:19:01;6.63;;;4.22;;
28625;SDS011;18905;42.668;23.364;2022-09-13T06:59:16;8.70;;;3.30;;
28625;SDS011;18905;42.668;23.364;2022-09-13T07:10:15;11.15;;;3.38;;
28625;SDS011;18905;42.668;23.364;2022-09-13T07:13:13;5.43;;;3.03;;
28625;SDS011;18905;42.668;23.364;2022-09-13T07:15:53;3.45;;;2.50;;
28625;SDS011;18905;42.668;23.364;2022-09-13T07:18:40;4.22;;;2.63;;
28625;SDS011;18905;42.668;23.364;2022-09-13T07:21:10;5.40;;;2.75;;
28625;SDS011;18905;42.668;23.364;2022-09-13T07:23:42;4.97;;;2.80;;
28625;SDS011;18905;42.668;23.364;2022-09-13T07:26:08;6.68;;;2.88;;
28625;SDS011;18905;42.668;23.364;2022-09-13T07:28:40;6.53;;;3.10;;
28625;SDS011;18905;42.668;23.364;2022-09-13T07:31:09;5.85;;;2.60;;
28625;SDS011;18905;42.668;23.364;2022-09-13T07:33:36;5.72;;;2.97;;
28625;SDS011;18905;42.668;23.364;2022-09-13T07:36:04;7.07;;;2.60;;
28625;SDS011;18905;42.668;23.364;2022-09-13T07:38:36;5.80;;;2.72;;
28625;SDS011;18905;42.668;23.364;2022-09-13T07:41:03;4.78;;;2.50;;
28625;SDS011;18905;42.668;23.364;2022-09-13T07:43:31;3.75;;;2.47;;
28625;SDS011;18905;42.668;23.364;2022-09-13T07:46:04;6.05;;;3.20;;
28625;SDS011;18905;42.668;23.364;2022-09-13T07:48:32;6.32;;;2.72;;
28625;SDS011;18905;42.668;23.364;2022-09-13T07:51:04;6.38;;;2.97;;
28625;SDS011;18905;42.668;23.364;2022-09-13T07:53:30;5.68;;;2.22;;
28625;SDS011;18905;42.668;23.364;2022-09-13T07:56:00;4.93;;;2.30;;
28625;SDS011;18905;42.668;23.364;2022-09-13T07:58:47;8.43;;;2.33;;
28625;SDS011;18905;42.668;23.364;2022-09-13T08:01:16;6.65;;;2.55;;
28625;SDS011;18905;42.668;23.364;2022-09-13T08:03:42;4.95;;;2.75;;
28625;SDS011;18905;42.668;23.364;2022-09-13T08:06:08;8.60;;;2.45;;
28625;SDS011;18905;42.668;23.364;2022-09-13T08:08:36;6.10;;;2.40;;
28625;SDS011;18905;42.668;23.364;2022-09-13T08:11:03;8.05;;;2.63;;
28625;SDS011;18905;42.668;23.364;2022-09-13T08:13:30;4.43;;;2.42;;
28625;SDS011;18905;42.668;23.364;2022-09-13T08:15:59;6.97;;;2.80;;
28625;SDS011;18905;42.668;23.364;2022-09-13T08:18:29;5.72;;;2.70;;
28625;SDS011;18905;42.668;23.364;2022-09-13T08:20:56;6.05;;;2.30;;
28625;SDS011;18905;42.668;23.364;2022-09-13T08:23:22;9.15;;;2.00;;
28625;SDS011;18905;42.668;23.364;2022-09-13T08:25:48;3.97;;;2.30;;
28625;SDS011;18905;42.668;23.364;2022-09-13T08:28:17;10.10;;;2.63;;
28625;SDS011;18905;42.668;23.364;2022-09-13T08:30:49;8.98;;;2.67;;
28625;SDS011;18905;42.668;23.364;2022-09-13T08:33:16;5.25;;;2.45;;
28625;SDS011;18905;42.668;23.364;2022-09-13T08:35:49;3.95;;;2.30;;
28625;SDS011;18905;42.668;23.364;2022-09-13T08:38:17;6.57;;;2.10;;
28625;SDS011;18905;42.668;23.364;2022-09-13T08:40:56;3.00;;;2.00;;
28625;SDS011;18905;42.668;23.364;2022-09-13T08:43:42;2.67;;;1.80;;
28625;SDS011;18905;42.668;23.364;2022-09-13T08:46:39;4.30;;;2.10;;
28625;SDS011;18905;42.668;23.364;2022-09-13T08:49:10;2.85;;;2.10;;
28625;SDS011;18905;42.668;23.364;2022-09-13T08:51:41;3.83;;;1.83;;
28625;SDS011;18905;42.668;23.364;2022-09-13T08:54:14;2.53;;;1.65;;
28625;SDS011;18905;42.668;23.364;2022-09-13T09:05:10;3.53;;;2.00;;
28625;SDS011;18905;42.668;23.364;2022-09-13T09:07:44;3.53;;;2.25;;
28625;SDS011;18905;42.668;23.364;2022-09-13T09:10:20;2.45;;;1.80;;
28625;SDS011;18905;42.668;23.364;2022-09-13T09:12:56;10.60;;;2.22;;
28625;SDS011;18905;42.668;23.364;2022-09-13T09:15:23;4.53;;;1.80;;
28625;SDS011;18905;42.668;23.364;2022-09-13T09:17:58;4.53;;;1.92;;
28625;SDS011;18905;42.668;23.364;2022-09-13T09:23:18;8.60;;;1.92;;
28625;SDS011;18905;42.668;23.364;2022-09-13T09:28:53;2.77;;;2.23;;
28625;SDS011;18905;42.668;23.364;2022-09-13T09:31:35;3.60;;;1.85;;
28625;SDS011;18905;42.668;23.364;2022-09-13T09:36:44;4.90;;;2.28;;
28625;SDS011;18905;42.668;23.364;2022-09-13T09:39:26;4.22;;;1.90;;
28625;SDS011;18905;42.668;23.364;2022-09-13T09:41:58;4.32;;;2.00;;
28625;SDS011;18905;42.668;23.364;2022-09-13T09:44:28;3.90;;;2.10;;
28625;SDS011;18905;42.668;23.364;2022-09-13T09:49:40;6.28;;;2.72;;
28625;SDS011;18905;42.668;23.364;2022-09-13T09:52:49;9.85;;;2.30;;
28625;SDS011;18905;42.668;23.364;2022-09-13T09:55:30;2.85;;;2.22;;
28625;SDS011;18905;42.668;23.364;2022-09-13T09:58:05;3.45;;;1.98;;
28625;SDS011;18905;42.668;23.364;2022-09-13T10:00:34;6.32;;;2.25;;
28625;SDS011;18905;42.668;23.364;2022-09-13T10:03:04;5.22;;;1.95;;
28625;SDS011;18905;42.668;23.364;2022-09-13T10:08:06;3.90;;;1.88;;
28625;SDS011;18905;42.668;23.364;2022-09-13T10:10:55;4.63;;;2.28;;
28625;SDS011;18905;42.668;23.364;2022-09-13T10:13:28;2.22;;;1.92;;
28625;SDS011;18905;42.668;23.364;2022-09-13T10:15:56;4.43;;;1.85;;
28625;SDS011;18905;42.668;23.364;2022-09-13T10:18:24;3.13;;;1.77;;
28625;SDS011;18905;42.668;23.364;2022-09-13T10:23:37;6.72;;;2.28;;
28625;SDS011;18905;42.668;23.364;2022-09-13T10:26:09;3.53;;;2.20;;
28625;SDS011;18905;42.668;23.364;2022-09-13T10:31:37;1.90;;;1.70;;
28625;SDS011;18905;42.668;23.364;2022-09-13T10:34:16;3.08;;;1.80;;
28625;SDS011;18905;42.668;23.364;2022-09-13T10:39:31;4.05;;;1.80;;
28625;SDS011;18905;42.668;23.364;2022-09-13T10:42:02;2.42;;;1.73;;
28625;SDS011;18905;42.668;23.364;2022-09-13T10:44:53;2.60;;;1.73;;
28625;SDS011;18905;42.668;23.364;2022-09-13T10:55:23;4.93;;;1.80;;
28625;SDS011;18905;42.668;23.364;2022-09-13T11:07:03;4.18;;;1.95;;
28625;SDS011;18905;42.668;23.364;2022-09-13T11:15:03;2.60;;;2.00;;
28625;SDS011;18905;42.668;23.364;2022-09-13T11:20:56;2.17;;;1.60;;
28625;SDS011;18905;42.668;23.364;2022-09-13T12:07:26;2.92;;;1.85;;
28625;SDS011;18905;42.668;23.364;2022-09-13T12:10:00;2.55;;;1.77;;
28625;SDS011;18905;42.668;23.364;2022-09-13T12:12:33;5.45;;;1.88;;
28625;SDS011;18905;42.668;23.364;2022-09-13T12:17:47;4.10;;;1.90;;
28625;SDS011;18905;42.668;23.364;2022-09-13T12:20:33;4.45;;;1.90;;
28625;SDS011;18905;42.668;23.364;2022-09-13T12:23:11;5.40;;;2.10;;
28625;SDS011;18905;42.668;23.364;2022-09-13T12:57:16;3.85;;;1.60;;
28625;SDS011;18905;42.668;23.364;2022-09-13T13:02:28;2.60;;;1.48;;
28625;SDS011;18905;42.668;23.364;2022-09-13T13:05:00;2.25;;;1.60;;
28625;SDS011;18905;42.668;23.364;2022-09-13T13:07:29;2.10;;;1.70;;
28625;SDS011;18905;42.668;23.364;2022-09-13T13:10:00;1.83;;;1.40;;
28625;SDS011;18905;42.668;23.364;2022-09-13T13:12:33;5.38;;;2.00;;
28625;SDS011;18905;42.668;23.364;2022-09-13T13:15:06;5.63;;;1.73;;
28625;SDS011;18905;42.668;23.364;2022-09-13T13:34:01;5.72;;;1.80;;
28625;SDS011;18905;42.668;23.364;2022-09-13T13:36:43;4.00;;;1.80;;
28625;SDS011;18905;42.668;23.364;2022-09-13T14:11:54;3.63;;;2.30;;
28625;SDS011;18905;42.668;23.364;2022-09-13T14:20:27;3.78;;;1.95;;
28625;SDS011;18905;42.668;23.364;2022-09-13T14:25:45;3.42;;;1.88;;
28625;SDS011;18905;42.668;23.364;2022-09-13T14:28:24;3.15;;;2.10;;
28625;SDS011;18905;42.668;23.364;2022-09-13T14:30:56;2.67;;;1.85;;
28625;SDS011;18905;42.668;23.364;2022-09-13T14:33:29;3.85;;;1.73;;
28625;SDS011;18905;42.668;23.364;2022-09-13T14:36:03;2.38;;;1.80;;
28625;SDS011;18905;42.668;23.364;2022-09-13T14:38:46;3.25;;;2.28;;
28625;SDS011;18905;42.668;23.364;2022-09-13T14:41:19;8.55;;;2.25;;
28625;SDS011;18905;42.668;23.364;2022-09-13T14:47:29;2.45;;;2.20;;
28625;SDS011;18905;42.668;23.364;2022-09-13T14:50:38;3.30;;;2.35;;
28625;SDS011;18905;42.668;23.364;2022-09-13T14:53:16;2.88;;;1.92;;
28625;SDS011;18905;42.668;23.364;2022-09-13T14:55:52;10.23;;;2.13;;
28625;SDS011;18905;42.668;23.364;2022-09-13T14:58:25;1.77;;;1.67;;
28625;SDS011;18905;42.668;23.364;2022-09-13T15:01:10;3.67;;;1.88;;
28625;SDS011;18905;42.668;23.364;2022-09-13T15:03:41;2.47;;;2.10;;
28625;SDS011;18905;42.668;23.364;2022-09-13T15:06:18;3.05;;;2.50;;
28625;SDS011;18905;42.668;23.364;2022-09-13T15:08:48;1.88;;;1.73;;
28625;SDS011;18905;42.668;23.364;2022-09-13T15:11:25;3.95;;;2.00;;
28625;SDS011;18905;42.668;23.364;2022-09-13T15:19:34;3.60;;;2.17;;
28625;SDS011;18905;42.668;23.364;2022-09-13T15:22:28;2.92;;;2.50;;
28625;SDS011;18905;42.668;23.364;2022-09-13T15:28:00;2.70;;;2.03;;
28625;SDS011;18905;42.668;23.364;2022-09-13T15:30:49;3.78;;;2.10;;
28625;SDS011;18905;42.668;23.364;2022-09-13T15:33:24;3.22;;;2.20;;
28625;SDS011;18905;42.668;23.364;2022-09-13T15:36:11;2.38;;;2.03;;
28625;SDS011;18905;42.668;23.364;2022-09-13T15:41:38;3.50;;;2.10;;
28625;SDS011;18905;42.668;23.364;2022-09-13T15:44:06;4.85;;;2.30;;
28625;SDS011;18905;42.668;23.364;2022-09-13T15:46:42;3.60;;;2.38;;
28625;SDS011;18905;42.668;23.364;2022-09-13T15:49:14;7.28;;;2.67;;
28625;SDS011;18905;42.668;23.364;2022-09-13T15:51:42;7.68;;;3.28;;
28625;SDS011;18905;42.668;23.364;2022-09-13T15:54:15;6.38;;;3.75;;
28625;SDS011;18905;42.668;23.364;2022-09-13T15:56:42;3.58;;;2.33;;
28625;SDS011;18905;42.668;23.364;2022-09-13T15:59:11;4.00;;;2.58;;
28625;SDS011;18905;42.668;23.364;2022-09-13T16:01:38;3.50;;;2.28;;
28625;SDS011;18905;42.668;23.364;2022-09-13T16:04:03;4.88;;;2.10;;
28625;SDS011;18905;42.668;23.364;2022-09-13T16:06:30;5.07;;;2.30;;
28625;SDS011;18905;42.668;23.364;2022-09-13T16:08:55;3.78;;;2.80;;
28625;SDS011;18905;42.668;23.364;2022-09-13T16:11:21;3.40;;;2.45;;
28625;SDS011;18905;42.668;23.364;2022-09-13T16:13:46;4.43;;;2.50;;
28625;SDS011;18905;42.668;23.364;2022-09-13T16:16:12;4.50;;;3.08;;
28625;SDS011;18905;42.668;23.364;2022-09-13T16:18:38;5.05;;;3.20;;
28625;SDS011;18905;42.668;23.364;2022-09-13T16:21:04;3.10;;;2.75;;
28625;SDS011;18905;42.668;23.364;2022-09-13T16:23:30;3.22;;;2.67;;
28625;SDS011;18905;42.668;23.364;2022-09-13T16:25:56;5.10;;;2.75;;
28625;SDS011;18905;42.668;23.364;2022-09-13T16:28:23;6.57;;;3.22;;
28625;SDS011;18905;42.668;23.364;2022-09-13T16:30:48;5.97;;;3.40;;
28625;SDS011;18905;42.668;23.364;2022-09-13T16:33:14;5.63;;;4.28;;
28625;SDS011;18905;42.668;23.364;2022-09-13T16:35:40;3.92;;;3.00;;
28625;SDS011;18905;42.668;23.364;2022-09-13T16:38:05;4.80;;;3.30;;
28625;SDS011;18905;42.668;23.364;2022-09-13T16:40:32;9.30;;;3.35;;
28625;SDS011;18905;42.668;23.364;2022-09-13T16:42:58;8.80;;;3.40;;
28625;SDS011;18905;42.668;23.364;2022-09-13T16:45:23;6.80;;;3.65;;
28625;SDS011;18905;42.668;23.364;2022-09-13T16:47:49;4.43;;;3.17;;
28625;SDS011;18905;42.668;23.364;2022-09-13T16:50:14;5.40;;;3.45;;
28625;SDS011;18905;42.668;23.364;2022-09-13T16:52:47;5.93;;;3.35;;
28625;SDS011;18905;42.668;23.364;2022-09-13T16:55:16;7.47;;;2.92;;
28625;SDS011;18905;42.668;23.364;2022-09-13T16:57:49;6.93;;;3.65;;
28625;SDS011;18905;42.668;23.364;2022-09-13T17:00:19;6.78;;;3.83;;
28625;SDS011;18905;42.668;23.364;2022-09-13T17:02:55;7.13;;;3.53;;
28625;SDS011;18905;42.668;23.364;2022-09-13T17:05:28;8.73;;;3.70;;
28625;SDS011;18905;42.668;23.364;2022-09-13T17:08:17;8.27;;;3.75;;
28625;SDS011;18905;42.668;23.364;2022-09-13T17:10:55;5.60;;;3.58;;
28625;SDS011;18905;42.668;23.364;2022-09-13T17:13:25;7.53;;;3.50;;
28625;SDS011;18905;42.668;23.364;2022-09-13T17:15:51;5.68;;;3.60;;
28625;SDS011;18905;42.668;23.364;2022-09-13T17:18:20;10.48;;;3.88;;
28625;SDS011;18905;42.668;23.364;2022-09-13T17:20:51;6.82;;;4.15;;
28625;SDS011;18905;42.668;23.364;2022-09-13T17:23:22;6.03;;;4.45;;
28625;SDS011;18905;42.668;23.364;2022-09-13T17:25:54;5.10;;;3.70;;
28625;SDS011;18905;42.668;23.364;2022-09-13T17:28:24;6.07;;;3.70;;
28625;SDS011;18905;42.668;23.364;2022-09-13T17:30:52;5.18;;;3.83;;
28625;SDS011;18905;42.668;23.364;2022-09-13T17:33:23;5.18;;;3.75;;
28625;SDS011;18905;42.668;23.364;2022-09-13T17:35:57;5.82;;;4.03;;
28625;SDS011;18905;42.668;23.364;2022-09-13T19:50:30;31.63;;;12.25;;
28625;SDS011;18905;42.668;23.364;2022-09-13T19:53:05;21.98;;;9.57;;
28625;SDS011;18905;42.668;23.364;2022-09-13T19:55:42;23.20;;;8.10;;
28625;SDS011;18905;42.668;23.364;2022-09-13T19:58:10;13.50;;;6.70;;
28625;SDS011;18905;42.668;23.364;2022-09-13T20:00:42;11.55;;;5.70;;
28625;SDS011;18905;42.668;23.364;2022-09-13T20:03:14;8.18;;;4.55;;
28625;SDS011;18905;42.668;23.364;2022-09-13T20:05:52;11.10;;;3.90;;
28625;SDS011;18905;42.668;23.364;2022-09-13T20:08:23;6.90;;;3.50;;
28625;SDS011;18905;42.668;23.364;2022-09-13T20:10:50;12.02;;;3.80;;
28625;SDS011;18905;42.668;23.364;2022-09-13T20:13:17;7.63;;;4.40;;
28625;SDS011;18905;42.668;23.364;2022-09-13T20:15:46;8.65;;;4.25;;
28625;SDS011;18905;42.668;23.364;2022-09-13T20:18:12;12.88;;;4.32;;
28625;SDS011;18905;42.668;23.364;2022-09-13T20:20:41;8.98;;;4.35;;
28625;SDS011;18905;42.668;23.364;2022-09-13T20:23:08;13.05;;;4.90;;
28625;SDS011;18905;42.668;23.364;2022-09-13T20:25:35;10.50;;;4.88;;
28625;SDS011;18905;42.668;23.364;2022-09-13T20:28:06;11.82;;;6.65;;
28625;SDS011;18905;42.668;23.364;2022-09-13T20:30:34;15.38;;;7.57;;
28625;SDS011;18905;42.668;23.364;2022-09-13T20:33:02;8.98;;;6.82;;
28625;SDS011;18905;42.668;23.364;2022-09-13T20:35:30;12.27;;;7.13;;
28625;SDS011;18905;42.668;23.364;2022-09-13T20:37:57;12.85;;;6.78;;
28625;SDS011;18905;42.668;23.364;2022-09-13T20:40:22;10.68;;;7.03;;
28625;SDS011;18905;42.668;23.364;2022-09-13T20:42:49;15.15;;;6.30;;
28625;SDS011;18905;42.668;23.364;2022-09-13T20:45:16;11.25;;;6.88;;
28625;SDS011;18905;42.668;23.364;2022-09-13T20:47:42;18.20;;;6.72;;
28625;SDS011;18905;42.668;23.364;2022-09-13T20:50:10;8.85;;;6.07;;
28625;SDS011;18905;42.668;23.364;2022-09-13T20:52:37;9.52;;;5.57;;
28625;SDS011;18905;42.668;23.364;2022-09-13T20:55:06;9.05;;;4.93;;
28625;SDS011;18905;42.668;23.364;2022-09-13T20:57:32;6.45;;;4.32;;
28625;SDS011;18905;42.668;23.364;2022-09-13T21:00:04;8.15;;;5.28;;
28625;SDS011;18905;42.668;23.364;2022-09-13T21:02:32;7.25;;;5.20;;
28625;SDS011;18905;42.668;23.364;2022-09-13T21:04:58;10.10;;;4.80;;
28625;SDS011;18905;42.668;23.364;2022-09-13T21:07:26;8.55;;;4.55;;
28625;SDS011;18905;42.668;23.364;2022-09-13T21:10:10;6.15;;;4.60;;
28625;SDS011;18905;42.668;23.364;2022-09-13T21:12:35;6.93;;;5.22;;
28625;SDS011;18905;42.668;23.364;2022-09-13T21:15:02;8.73;;;4.63;;
28625;SDS011;18905;42.668;23.364;2022-09-13T21:17:28;9.07;;;4.20;;
28625;SDS011;18905;42.668;23.364;2022-09-13T21:19:53;12.70;;;4.82;;
28625;SDS011;18905;42.668;23.364;2022-09-13T21:22:19;6.35;;;4.32;;
28625;SDS011;18905;42.668;23.364;2022-09-13T21:24:45;7.22;;;4.55;;
28625;SDS011;18905;42.668;23.364;2022-09-13T21:27:11;7.07;;;4.70;;
28625;SDS011;18905;42.668;23.364;2022-09-13T21:29:38;6.55;;;4.82;;
28625;SDS011;18905;42.668;23.364;2022-09-13T21:32:19;10.23;;;4.85;;
28625;SDS011;18905;42.668;23.364;2022-09-13T21:34:45;7.43;;;4.93;;
28625;SDS011;18905;42.668;23.364;2022-09-13T21:37:12;8.48;;;5.50;;
28625;SDS011;18905;42.668;23.364;2022-09-13T21:39:39;6.95;;;5.13;;
